Time;durP1;ratioP1;P1;durP2;ratioP2;P2;SDS_P1;SDS_P2;PMS_P1;PMS_P2;Temp;Humidity;BMP_temperature;BMP_pressure;BME280_temperature;BME280_humidity;BME280_pressure;Samples;Min_cycle;Max_cycle;Signal;HPM_P1;HPM_P2
2021/09/02 00:02:33;;;;;;;16.50;15.60;;;22.40;98.10;;;;;;2608191;54;20465;-57
2021/09/02 00:05:02;;;;;;;17.23;16.03;;;22.40;97.90;;;;;;2607828;46;20434;-58
2021/09/02 00:07:32;;;;;;;16.10;15.20;;;22.40;97.90;;;;;;2608076;54;20363;-57
2021/09/02 00:10:01;;;;;;;16.33;15.43;;;22.30;97.90;;;;;;2607492;51;20509;-58
2021/09/02 00:12:31;;;;;;;17.70;16.50;;;22.40;97.90;;;;;;2608279;54;20406;-57
2021/09/02 00:15:01;;;;;;;17.77;16.67;;;22.30;97.90;;;;;;2607034;54;20506;-57
2021/09/02 00:17:32;;;;;;;16.67;15.80;;;22.30;97.80;;;;;;2606428;54;20486;-57
2021/09/02 00:20:01;;;;;;;17.10;16.00;;;22.30;97.80;;;;;;2605276;47;20406;-59
2021/09/02 00:22:30;;;;;;;17.30;16.20;;;22.40;97.90;;;;;;2606721;54;20426;-58
2021/09/02 00:25:00;;;;;;;17.13;16.17;;;22.40;97.90;;;;;;2607122;39;20574;-58
2021/09/02 00:27:29;;;;;;;16.60;15.50;;;22.30;97.80;;;;;;2606204;54;20434;-59
2021/09/02 00:30:10;;;;;;;17.97;16.77;;;22.40;97.90;;;;;;2606823;54;20914;-58
2021/09/02 00:32:42;;;;;;;16.83;15.87;;;22.40;97.80;;;;;;2606359;39;20585;-58
2021/09/02 00:35:12;;;;;;;17.23;16.03;;;22.40;97.90;;;;;;2608625;39;20610;-57
2021/09/02 00:37:42;;;;;;;16.43;15.33;;;22.40;97.80;;;;;;2608151;54;20359;-55
2021/09/02 00:40:12;;;;;;;17.50;16.27;;;22.40;97.80;;;;;;2608398;54;20407;-57
2021/09/02 00:42:41;;;;;;;17.07;15.97;;;22.40;97.80;;;;;;2608004;54;20394;-58
2021/09/02 00:45:11;;;;;;;16.60;15.70;;;22.40;97.80;;;;;;2607490;54;20414;-58
2021/09/02 00:47:43;;;;;;;17.10;16.03;;;22.40;98.10;;;;;;2608170;39;20656;-59
2021/09/02 00:50:13;;;;;;;16.13;15.33;;;22.40;97.80;;;;;;2608493;54;20959;-59
2021/09/02 00:52:42;;;;;;;16.90;15.80;;;22.40;97.80;;;;;;2610203;54;20769;-59
2021/09/02 00:55:17;;;;;;;16.43;15.30;;;22.40;97.80;;;;;;2609284;39;20736;-58
2021/09/02 00:57:46;;;;;;;16.93;15.83;;;22.40;97.80;;;;;;2607990;54;20407;-58
2021/09/02 01:00:18;;;;;;;16.57;15.63;;;22.40;97.80;;;;;;2607453;54;20414;-58
2021/09/02 01:02:50;;;;;;;16.77;15.77;;;22.40;97.80;;;;;;2610471;54;20441;-58
2021/09/02 01:05:21;;;;;;;17.60;16.40;;;22.40;97.80;;;;;;2609417;54;20379;-58
2021/09/02 01:07:50;;;;;;;15.80;14.90;;;22.40;97.80;;;;;;2608178;54;20395;-56
2021/09/02 01:10:20;;;;;;;17.07;15.97;;;22.40;97.80;;;;;;2606654;39;20711;-58
2021/09/02 01:12:50;;;;;;;17.07;15.87;;;22.40;97.80;;;;;;2607896;54;20438;-57
2021/09/02 01:15:21;;;;;;;16.80;15.80;;;22.40;97.80;;;;;;2609003;54;20402;-59
2021/09/02 01:17:56;;;;;;;16.43;15.43;;;22.40;97.80;;;;;;2609650;54;20371;-58
2021/09/02 01:20:28;;;;;;;17.13;16.13;;;22.40;97.80;;;;;;2608935;54;20390;-59
2021/09/02 01:22:59;;;;;;;16.80;15.90;;;22.40;97.80;;;;;;2608519;54;20417;-58
2021/09/02 01:25:34;;;;;;;16.47;15.57;;;22.40;97.80;;;;;;2608784;54;20824;-58
2021/09/02 01:28:05;;;;;;;16.90;15.70;;;22.40;97.80;;;;;;2607597;54;20720;-58
2021/09/02 01:30:37;;;;;;;17.30;16.37;;;22.40;97.80;;;;;;2608105;54;20406;-59
2021/09/02 01:33:07;;;;;;;17.10;16.00;;;22.40;97.80;;;;;;2608316;54;20553;-57
2021/09/02 01:35:37;;;;;;;17.17;16.17;;;22.40;97.80;;;;;;2606865;54;20367;-58
2021/09/02 01:38:07;;;;;;;17.97;16.97;;;22.40;97.80;;;;;;2606740;47;20395;-59
2021/09/02 01:40:40;;;;;;;16.50;15.67;;;22.40;97.80;;;;;;2607483;39;20747;-58
2021/09/02 01:43:11;;;;;;;16.53;15.63;;;22.40;97.80;;;;;;2607723;54;20429;-58
2021/09/02 01:45:42;;;;;;;17.10;15.80;;;22.40;97.80;;;;;;2606657;54;20514;-59
2021/09/02 01:48:11;;;;;;;17.03;16.00;;;22.40;97.80;;;;;;2607110;54;20375;-58
2021/09/02 01:50:42;;;;;;;17.10;16.10;;;22.40;97.80;;;;;;2607996;54;20402;-59
2021/09/02 01:53:13;;;;;;;17.23;16.10;;;22.40;97.80;;;;;;2609150;54;20430;-57
2021/09/02 01:55:46;;;;;;;16.20;15.40;;;22.40;97.80;;;;;;2607902;54;20412;-59
2021/09/02 01:58:15;;;;;;;16.73;15.63;;;22.40;97.80;;;;;;2609562;39;20871;-58
2021/09/02 02:00:45;;;;;;;17.73;16.63;;;22.40;97.80;;;;;;2607091;39;21151;-56
2021/09/02 02:03:15;;;;;;;17.80;16.70;;;22.40;97.80;;;;;;2605672;54;20877;-59
2021/09/02 02:05:45;;;;;;;17.77;16.67;;;22.40;97.80;;;;;;2606680;54;20371;-59
2021/09/02 02:08:18;;;;;;;16.80;15.90;;;22.40;97.80;;;;;;2608350;54;21065;-58
2021/09/02 02:10:50;;;;;;;17.00;16.03;;;22.40;97.80;;;;;;2608675;31;20853;-59
2021/09/02 02:13:19;;;;;;;17.43;16.10;;;22.40;98.20;;;;;;2609293;54;20391;-56
2021/09/02 02:15:48;;;;;;;17.10;16.20;;;22.40;97.80;;;;;;2606358;39;20762;-59
2021/09/02 02:18:17;;;;;;;17.70;16.50;;;22.40;97.80;;;;;;2608922;54;20421;-59
2021/09/02 02:20:46;;;;;;;17.13;16.30;;;22.40;97.80;;;;;;2607920;54;20399;-57
2021/09/02 02:23:16;;;;;;;18.33;16.80;;;22.40;97.90;;;;;;2609228;47;20395;-58
2021/09/02 02:25:45;;;;;;;17.33;16.43;;;22.40;97.90;;;;;;2608738;51;20438;-59
2021/09/02 02:28:16;;;;;;;16.70;15.77;;;22.40;97.90;;;;;;2608575;54;20387;-58
2021/09/02 02:30:46;;;;;;;17.93;16.83;;;22.40;97.80;;;;;;2608570;39;20789;-59
2021/09/02 02:33:15;;;;;;;17.47;16.53;;;22.40;97.80;;;;;;2608762;39;20748;-58
2021/09/02 02:35:44;;;;;;;17.07;16.10;;;22.40;97.80;;;;;;2606009;54;20776;-59
2021/09/02 02:38:13;;;;;;;16.70;15.80;;;22.40;97.90;;;;;;2609405;54;20379;-59
2021/09/02 02:40:42;;;;;;;17.43;16.43;;;22.40;97.90;;;;;;2607304;51;20502;-59
2021/09/02 02:43:11;;;;;;;17.63;16.47;;;22.40;97.80;;;;;;2608453;39;20712;-58
2021/09/02 02:45:43;;;;;;;16.83;15.93;;;22.40;97.80;;;;;;2607076;54;20416;-59
2021/09/02 02:48:12;;;;;;;16.67;15.63;;;22.40;97.90;;;;;;2608384;54;20417;-57
2021/09/02 02:50:42;;;;;;;17.23;16.13;;;22.40;97.80;;;;;;2609602;49;20407;-59
2021/09/02 02:53:11;;;;;;;17.70;16.50;;;22.40;97.80;;;;;;2609527;54;21036;-59
2021/09/02 02:55:40;;;;;;;17.90;16.60;;;22.40;97.90;;;;;;2608102;54;20486;-59
2021/09/02 02:58:09;;;;;;;17.33;16.40;;;22.40;97.80;;;;;;2607186;54;20398;-59
2021/09/02 03:00:38;;;;;;;17.63;16.53;;;22.40;97.90;;;;;;2609302;39;20628;-58
2021/09/02 03:03:10;;;;;;;16.20;15.20;;;22.40;97.90;;;;;;2608743;54;20925;-58
2021/09/02 03:05:39;;;;;;;17.20;15.80;;;22.40;97.90;;;;;;2607818;54;20398;-58
2021/09/02 03:08:09;;;;;;;16.57;15.47;;;22.40;97.80;;;;;;2607603;39;20801;-59
2021/09/02 03:10:38;;;;;;;16.47;15.60;;;22.40;97.90;;;;;;2609169;39;20718;-58
2021/09/02 03:13:07;;;;;;;17.10;16.10;;;22.40;97.90;;;;;;2607677;54;20367;-58
2021/09/02 03:15:36;;;;;;;17.50;16.60;;;22.40;97.90;;;;;;2607228;54;20880;-58
2021/09/02 03:18:06;;;;;;;18.30;17.20;;;22.40;97.90;;;;;;2606880;39;20545;-59
2021/09/02 03:20:38;;;;;;;17.53;16.63;;;22.40;97.90;;;;;;2608064;54;20874;-59
2021/09/02 03:23:07;;;;;;;17.80;16.73;;;22.30;97.80;;;;;;2608555;54;20411;-58
2021/09/02 03:25:36;;;;;;;17.57;16.47;;;22.40;97.90;;;;;;2606206;54;20383;-56
2021/09/02 03:28:06;;;;;;;18.73;17.53;;;22.40;97.90;;;;;;2605889;47;20394;-57
2021/09/02 03:30:35;;;;;;;18.13;17.13;;;22.40;97.90;;;;;;2604623;54;21022;-58
2021/09/02 03:33:05;;;;;;;17.40;16.40;;;22.30;97.80;;;;;;2605781;54;20980;-58
2021/09/02 03:35:37;;;;;;;18.60;17.33;;;22.30;97.80;;;;;;2605774;39;20866;-57
2021/09/02 03:38:07;;;;;;;18.03;16.63;;;22.40;97.90;;;;;;2605708;54;20530;-59
2021/09/02 03:40:36;;;;;;;17.47;16.17;;;22.40;97.90;;;;;;2604268;54;20371;-59
2021/09/02 03:43:05;;;;;;;17.70;16.50;;;22.40;97.90;;;;;;2606619;54;20411;-59
2021/09/02 03:45:34;;;;;;;17.17;16.07;;;22.30;97.80;;;;;;2604319;39;20680;-58
2021/09/02 03:48:04;;;;;;;17.63;16.57;;;22.40;97.90;;;;;;2604639;54;20510;-58
2021/09/02 03:50:36;;;;;;;17.70;16.70;;;22.40;97.90;;;;;;2604065;47;20391;-58
2021/09/02 03:53:06;;;;;;;18.13;16.93;;;22.30;97.80;;;;;;2606616;39;20647;-59
2021/09/02 03:55:35;;;;;;;17.07;16.13;;;22.30;97.80;;;;;;2606000;39;20732;-58
2021/09/02 03:58:04;;;;;;;18.23;17.17;;;22.40;97.90;;;;;;2606201;54;20363;-59
2021/09/02 04:00:33;;;;;;;17.70;16.70;;;22.40;97.90;;;;;;2605603;54;20441;-58
2021/09/02 04:03:02;;;;;;;18.20;17.03;;;22.40;97.90;;;;;;2605951;54;20367;-59
2021/09/02 04:05:31;;;;;;;18.90;17.70;;;22.30;97.80;;;;;;2603379;54;20391;-58
2021/09/02 04:08:03;;;;;;;19.63;18.40;;;22.40;97.90;;;;;;2604271;54;20367;-58
2021/09/02 04:10:32;;;;;;;18.50;17.40;;;22.30;97.80;;;;;;2605618;54;20422;-58
2021/09/02 04:13:02;;;;;;;17.40;16.50;;;22.40;97.90;;;;;;2605969;54;20394;-58
2021/09/02 04:15:31;;;;;;;17.87;16.87;;;22.40;97.90;;;;;;2607482;54;20945;-58
2021/09/02 04:18:00;;;;;;;19.00;17.80;;;22.40;97.90;;;;;;2606934;54;20406;-59
2021/09/02 04:20:29;;;;;;;18.70;17.50;;;22.40;97.90;;;;;;2606199;54;20383;-58
2021/09/02 04:22:58;;;;;;;19.10;17.73;;;22.30;97.80;;;;;;2605260;39;20697;-59
2021/09/02 04:25:30;;;;;;;19.27;18.07;;;22.40;97.90;;;;;;2604202;39;20902;-58
2021/09/02 04:27:59;;;;;;;18.40;17.50;;;22.30;97.80;;;;;;2604034;54;20414;-59
2021/09/02 04:30:28;;;;;;;18.83;17.77;;;22.40;97.90;;;;;;2604618;39;20621;-58
2021/09/02 04:33:01;;;;;;;18.37;17.47;;;22.40;97.90;;;;;;2605604;47;20417;-57
2021/09/02 04:35:30;;;;;;;18.53;17.63;;;22.40;97.90;;;;;;2603359;54;20379;-59
2021/09/02 04:37:59;;;;;;;18.93;17.83;;;22.30;97.80;;;;;;2604946;54;20387;-59
2021/09/02 04:40:31;;;;;;;19.40;18.20;;;22.30;97.90;;;;;;2603083;54;20444;-59
2021/09/02 04:43:00;;;;;;;18.07;17.07;;;22.40;97.90;;;;;;2601948;54;20936;-58
2021/09/02 04:45:29;;;;;;;17.83;16.80;;;22.40;97.90;;;;;;2599601;39;20726;-57
2021/09/02 04:47:58;;;;;;;18.70;17.53;;;22.40;97.90;;;;;;2600833;54;20402;-57
2021/09/02 04:50:28;;;;;;;18.33;17.23;;;22.30;97.90;;;;;;2599135;54;20486;-58
2021/09/02 04:52:57;;;;;;;18.63;17.53;;;22.30;97.90;;;;;;2593349;54;20398;-58
2021/09/02 04:55:26;;;;;;;18.90;17.67;;;22.40;97.90;;;;;;2595051;54;20375;-59
2021/09/02 04:57:58;;;;;;;18.87;17.77;;;22.40;98.00;;;;;;2595029;39;20766;-60
2021/09/02 05:00:30;;;;;;;18.40;17.40;;;22.40;97.90;;;;;;2594990;54;20476;-58
2021/09/02 05:02:59;;;;;;;18.10;17.10;;;22.40;97.90;;;;;;2596262;54;20385;-62
2021/09/02 05:05:28;;;;;;;18.00;17.10;;;22.30;97.90;;;;;;2595983;54;20422;-62
2021/09/02 05:07:58;;;;;;;17.40;16.50;;;22.30;98.20;;;;;;2592312;54;20403;-63
2021/09/02 05:10:28;;;;;;;19.73;18.50;;;22.30;97.90;;;;;;2594016;39;20790;-62
2021/09/02 05:13:00;;;;;;;18.50;17.40;;;22.40;97.90;;;;;;2593752;39;20670;-61
2021/09/02 05:15:30;;;;;;;19.13;18.13;;;22.40;98.00;;;;;;2590735;54;20766;-61
2021/09/02 05:17:59;;;;;;;20.87;19.77;;;22.40;97.80;;;;;;2592939;39;20744;-63
2021/09/02 05:20:28;;;;;;;21.40;20.17;;;22.30;93.60;;;;;;2592222;39;20972;-62
2021/09/02 05:22:58;;;;;;;22.70;21.30;;;22.00;91.80;;;;;;2591868;54;20405;-63
2021/09/02 05:25:27;;;;;;;21.07;19.87;;;21.80;91.20;;;;;;2591995;54;21233;-62
2021/09/02 05:27:56;;;;;;;20.03;19.03;;;21.70;92.40;;;;;;2591197;39;20753;-63
2021/09/02 05:30:28;;;;;;;21.43;20.13;;;21.70;93.60;;;;;;2591817;39;20755;-63
2021/09/02 05:32:57;;;;;;;21.47;20.00;;;21.70;94.30;;;;;;2589020;39;20642;-63
2021/09/02 05:35:27;;;;;;;19.40;18.10;;;21.70;94.80;;;;;;2588110;54;21026;-61
2021/09/02 05:37:57;;;;;;;19.50;18.50;;;21.80;95.20;;;;;;2584860;54;20983;-62
2021/09/02 05:40:26;;;;;;;20.10;19.00;;;21.80;95.50;;;;;;2578656;47;20390;-62
2021/09/02 05:42:55;;;;;;;20.43;19.13;;;21.90;95.70;;;;;;2577768;39;20583;-63
2021/09/02 05:45:24;;;;;;;19.67;18.57;;;21.90;95.90;;;;;;2577772;54;21116;-63
2021/09/02 05:47:56;;;;;;;19.53;18.53;;;22.00;96.10;;;;;;2580408;54;20371;-63
2021/09/02 05:50:27;;;;;;;20.50;19.40;;;22.00;96.20;;;;;;2578547;54;21096;-63
2021/09/02 05:52:56;;;;;;;20.33;19.20;;;22.00;96.30;;;;;;2579661;54;20398;-56
2021/09/02 05:55:26;;;;;;;21.03;19.70;;;22.00;96.30;;;;;;2576147;54;20387;-58
2021/09/02 05:57:55;;;;;;;20.00;18.80;;;22.10;96.40;;;;;;2581084;47;20402;-63
2021/09/02 06:00:24;;;;;;;22.70;21.00;;;22.10;96.50;;;;;;2576267;54;20888;-62
2021/09/02 06:02:56;;;;;;;22.23;20.73;;;22.00;93.50;;;;;;2575624;54;20853;-62
2021/09/02 06:05:26;;;;;;;22.83;21.13;;;21.50;90.60;;;;;;2578113;54;20383;-62
2021/09/02 06:07:55;;;;;;;22.70;21.17;;;20.90;90.40;;;;;;2575919;51;20426;-62
2021/09/02 06:10:24;;;;;;;21.60;20.40;;;20.40;91.10;;;;;;2577411;54;21228;-64
2021/09/02 06:12:53;;;;;;;22.83;21.40;;;20.00;91.40;;;;;;2583770;54;20402;-62
2021/09/02 06:15:23;;;;;;;22.00;20.70;;;19.70;91.50;;;;;;2576574;54;20837;-61
2021/09/02 06:17:52;;;;;;;22.83;21.43;;;19.40;92.40;;;;;;2580000;54;20549;-62
2021/09/02 06:20:24;;;;;;;21.83;20.63;;;19.20;92.30;;;;;;2580511;39;21145;-62
2021/09/02 06:22:54;;;;;;;22.80;20.97;;;19.10;92.80;;;;;;2577842;54;20403;-61
2021/09/02 06:25:23;;;;;;;23.10;21.73;;;19.00;92.90;;;;;;2577649;54;20398;-60
2021/09/02 06:27:53;;;;;;;23.33;21.83;;;18.80;93.30;;;;;;2581186;39;20711;-62
2021/09/02 06:30:23;;;;;;;23.90;22.50;;;18.70;93.60;;;;;;2575746;54;21042;-62
2021/09/02 06:32:52;;;;;;;22.53;21.13;;;18.70;93.90;;;;;;2581473;54;20458;-63
2021/09/02 06:35:24;;;;;;;22.60;21.20;;;18.60;94.10;;;;;;2584494;54;20521;-63
2021/09/02 06:37:53;;;;;;;24.13;22.53;;;18.60;94.50;;;;;;2579821;39;20801;-63
2021/09/02 06:40:22;;;;;;;24.73;23.03;;;18.60;94.70;;;;;;2576799;54;21487;-63
2021/09/02 06:42:51;;;;;;;22.97;21.57;;;18.60;94.80;;;;;;2578389;54;20445;-63
2021/09/02 06:45:21;;;;;;;22.63;21.27;;;18.60;94.70;;;;;;2578914;54;20402;-64
2021/09/02 06:47:50;;;;;;;22.97;21.57;;;18.60;95.00;;;;;;2576441;54;20494;-63
2021/09/02 06:50:19;;;;;;;21.90;20.70;;;18.70;95.00;;;;;;2576961;54;20371;-64
2021/09/02 06:52:51;;;;;;;21.90;20.70;;;18.70;95.10;;;;;;2574982;54;20403;-63
2021/09/02 06:55:21;;;;;;;21.13;19.83;;;18.70;95.20;;;;;;2568447;54;20406;-62
2021/09/02 06:57:50;;;;;;;21.33;20.10;;;18.70;95.30;;;;;;2570362;54;21353;-62
2021/09/02 07:00:19;;;;;;;22.40;20.80;;;18.70;95.60;;;;;;2573372;47;20446;-64
2021/09/02 07:02:49;;;;;;;21.70;20.30;;;18.80;95.60;;;;;;2571711;54;20514;-61
2021/09/02 07:05:18;;;;;;;22.47;20.97;;;19.00;95.60;;;;;;2572430;39;20768;-62
2021/09/02 07:07:48;;;;;;;21.87;20.40;;;19.30;95.60;;;;;;2575761;54;20455;-63
2021/09/02 07:10:20;;;;;;;21.63;20.33;;;19.60;95.50;;;;;;2576815;54;20507;-62
2021/09/02 07:12:49;;;;;;;22.10;20.60;;;19.90;95.50;;;;;;2571436;54;20409;-62
2021/09/02 07:15:18;;;;;;;22.23;20.90;;;20.10;95.60;;;;;;2573268;54;20484;-63
2021/09/02 07:17:47;;;;;;;21.93;20.37;;;20.30;95.60;;;;;;2574752;54;20376;-61
2021/09/02 07:20:16;;;;;;;21.80;20.50;;;20.50;95.60;;;;;;2572078;54;20370;-62
2021/09/02 07:22:45;;;;;;;21.60;20.10;;;20.60;95.60;;;;;;2577418;54;20422;-62
2021/09/02 07:25:15;;;;;;;20.67;19.47;;;20.80;95.60;;;;;;2569792;54;20779;-61
2021/09/02 07:27:46;;;;;;;22.07;20.53;;;20.90;95.70;;;;;;2569640;54;21347;-63
2021/09/02 07:30:16;;;;;;;21.33;20.20;;;21.00;95.60;;;;;;2564362;54;20533;-62
2021/09/02 07:32:45;;;;;;;21.63;20.13;;;21.10;95.60;;;;;;2564514;54;20410;-62
2021/09/02 07:35:14;;;;;;;22.40;20.90;;;21.20;95.60;;;;;;2576203;54;20383;-63
2021/09/02 07:37:44;;;;;;;21.03;19.83;;;21.20;95.60;;;;;;2574765;54;20502;-62
2021/09/02 07:40:15;;;;;;;20.23;19.13;;;21.30;95.60;;;;;;2566214;54;20374;-63
2021/09/02 07:42:46;;;;;;;21.13;19.83;;;21.40;95.70;;;;;;2572581;54;20391;-63
2021/09/02 07:45:15;;;;;;;21.67;20.37;;;21.40;95.60;;;;;;2567299;54;20429;-63
2021/09/02 07:47:45;;;;;;;21.87;20.60;;;21.50;95.70;;;;;;2572293;54;20402;-62
2021/09/02 07:50:14;;;;;;;21.70;20.30;;;21.50;95.70;;;;;;2562910;54;20444;-63
2021/09/02 07:52:44;;;;;;;21.43;20.13;;;21.50;95.60;;;;;;2570182;54;21418;-63
2021/09/02 07:55:14;;;;;;;21.60;20.37;;;21.60;95.70;;;;;;2568557;54;20456;-62
2021/09/02 07:57:47;;;;;;;20.73;19.50;;;21.60;95.70;;;;;;2568791;52;20375;-63
2021/09/02 08:00:18;;;;;;;21.97;20.53;;;21.60;95.70;;;;;;2572811;54;20453;-63
2021/09/02 08:02:56;;;;;;;21.70;20.30;;;21.60;95.70;;;;;;2572777;54;20450;-63
2021/09/02 08:05:26;;;;;;;22.00;20.63;;;21.60;95.70;;;;;;2572137;54;20930;-62
2021/09/02 08:07:56;;;;;;;21.83;20.30;;;21.60;95.70;;;;;;2573197;54;20406;-62
2021/09/02 08:10:27;;;;;;;20.47;19.13;;;21.70;95.70;;;;;;2571881;54;20398;-63
2021/09/02 08:12:59;;;;;;;22.87;21.57;;;21.70;95.70;;;;;;2569208;54;20367;-63
2021/09/02 08:15:28;;;;;;;21.13;19.83;;;21.70;95.80;;;;;;2570489;54;20565;-63
2021/09/02 08:17:58;;;;;;;21.43;20.23;;;21.70;95.80;;;;;;2572973;39;21032;-63
2021/09/02 08:20:29;;;;;;;20.50;19.40;;;21.70;95.80;;;;;;2577202;54;20395;-62
2021/09/02 08:22:58;;;;;;;21.83;20.53;;;21.70;95.80;;;;;;2569573;54;20421;-61
2021/09/02 08:25:28;;;;;;;23.13;21.63;;;21.80;95.90;;;;;;2572017;54;20423;-61
2021/09/02 08:28:00;;;;;;;21.13;20.03;;;21.80;95.90;;;;;;2563885;54;20399;-62
2021/09/02 08:30:31;;;;;;;22.17;20.80;;;21.80;96.00;;;;;;2567002;51;20422;-62
2021/09/02 08:33:00;;;;;;;22.00;20.60;;;21.80;96.00;;;;;;2569286;54;20398;-63
2021/09/02 08:35:32;;;;;;;21.57;20.07;;;21.80;96.10;;;;;;2565839;51;20426;-62
2021/09/02 08:38:04;;;;;;;20.83;19.73;;;21.80;96.50;;;;;;2569215;39;20809;-63
2021/09/02 08:40:45;;;;;;;22.17;20.87;;;21.80;96.20;;;;;;2567944;47;20432;-62
2021/09/02 08:43:18;;;;;;;22.77;21.37;;;21.80;96.60;;;;;;2569319;54;20383;-63
2021/09/02 08:45:47;;;;;;;21.93;20.67;;;21.80;96.40;;;;;;2571653;54;20430;-63
2021/09/02 08:48:17;;;;;;;21.80;20.53;;;21.80;96.40;;;;;;2570801;54;20406;-63
2021/09/02 08:50:46;;;;;;;22.17;20.90;;;21.90;96.50;;;;;;2569259;54;20421;-63
2021/09/02 08:53:16;;;;;;;21.20;19.90;;;21.80;96.60;;;;;;2571358;39;20800;-62
2021/09/02 08:55:45;;;;;;;20.43;19.13;;;21.90;96.60;;;;;;2570955;54;20414;-63
2021/09/02 08:58:17;;;;;;;20.67;19.37;;;21.90;96.70;;;;;;2568780;54;20399;-61
2021/09/02 09:00:46;;;;;;;20.30;18.90;;;21.80;96.70;;;;;;2570674;51;20454;-61
2021/09/02 09:03:20;;;;;;;21.23;19.80;;;21.80;96.60;;;;;;2572636;54;20934;-61
2021/09/02 09:05:56;;;;;;;20.53;19.17;;;21.80;96.60;;;;;;2561855;54;20957;-61
2021/09/02 09:08:34;;;;;;;20.60;19.50;;;21.70;96.10;;;;;;2560367;54;20743;-61
2021/09/02 09:11:21;;;;;;;20.80;19.60;;;21.80;96.20;;;;;;2562047;54;20398;-61
2021/09/02 09:14:07;;;;;;;20.83;19.30;;;21.70;95.70;;;;;;2565382;54;20391;-56
2021/09/02 09:16:50;;;;;;;20.67;19.47;;;21.70;95.70;;;;;;2570263;39;20763;-57
2021/09/02 09:19:41;;;;;;;20.70;19.50;;;21.70;95.80;;;;;;2563769;54;20395;-57
2021/09/02 09:22:12;;;;;;;21.53;20.20;;;21.80;95.90;;;;;;2562814;54;20978;-57
2021/09/02 09:24:50;;;;;;;19.97;18.87;;;21.80;95.80;;;;;;2565316;54;20514;-57
2021/09/02 09:27:21;;;;;;;20.67;19.57;;;21.80;95.90;;;;;;2566749;54;20427;-57
2021/09/02 09:30:13;;;;;;;21.07;19.90;;;21.80;95.90;;;;;;2563509;54;20410;-58
2021/09/02 09:32:44;;;;;;;20.63;19.40;;;21.90;96.10;;;;;;2561481;54;20461;-57
2021/09/02 09:35:16;;;;;;;20.30;19.20;;;21.90;96.10;;;;;;2564583;54;20433;-56
2021/09/02 09:37:46;;;;;;;19.73;18.63;;;21.90;96.10;;;;;;2566948;39;20790;-58
2021/09/02 09:40:21;;;;;;;19.73;18.60;;;21.90;96.10;;;;;;2565265;54;20426;-58
2021/09/02 09:43:08;;;;;;;20.33;19.23;;;21.90;96.20;;;;;;2562245;54;21258;-58
2021/09/02 09:45:47;;;;;;;22.63;21.10;;;21.90;96.30;;;;;;2567098;39;21327;-57
2021/09/02 09:48:33;;;;;;;19.83;18.80;;;21.90;96.30;;;;;;2562034;54;20934;-55
2021/09/02 09:51:14;;;;;;;21.10;19.90;;;21.90;96.40;;;;;;2560295;54;20952;-57
2021/09/02 09:53:45;;;;;;;21.63;20.23;;;21.90;96.40;;;;;;2572731;39;21202;-59
2021/09/02 09:56:17;;;;;;;21.30;20.10;;;21.90;96.40;;;;;;2569796;54;21590;-58
2021/09/02 09:58:47;;;;;;;19.67;18.67;;;21.90;96.50;;;;;;2571539;54;20501;-57
2021/09/02 10:01:19;;;;;;;19.60;18.50;;;21.90;96.50;;;;;;2566645;54;20433;-58
2021/09/02 10:03:51;;;;;;;19.70;18.50;;;22.00;96.60;;;;;;2571558;54;20487;-59
2021/09/02 10:06:23;;;;;;;20.00;18.87;;;22.00;96.60;;;;;;2573960;54;20458;-59
2021/09/02 10:08:52;;;;;;;20.07;18.87;;;22.00;96.60;;;;;;2574996;54;20441;-56
2021/09/02 10:11:23;;;;;;;21.53;20.23;;;22.00;96.60;;;;;;2569816;49;20537;-57
2021/09/02 10:13:53;;;;;;;20.93;19.80;;;22.00;96.70;;;;;;2572633;39;20755;-57
2021/09/02 10:16:25;;;;;;;20.33;19.13;;;22.00;96.70;;;;;;2569685;54;20406;-58
2021/09/02 10:18:55;;;;;;;22.10;20.20;;;22.00;96.70;;;;;;2567935;39;20696;-57
2021/09/02 10:21:24;;;;;;;21.07;19.97;;;22.00;96.70;;;;;;2570740;54;20411;-58
2021/09/02 10:23:53;;;;;;;20.37;19.10;;;22.00;96.70;;;;;;2569079;54;20434;-57
2021/09/02 10:26:40;;;;;;;20.27;19.17;;;22.00;96.70;;;;;;2569535;54;20433;-58
2021/09/02 10:29:37;;;;;;;19.77;18.57;;;22.00;96.50;;;;;;2572281;54;20378;-58
2021/09/02 10:32:36;;;;;;;19.90;18.80;;;22.00;96.00;;;;;;2576387;54;20903;-57
2021/09/02 10:35:34;;;;;;;20.83;19.53;;;22.00;95.80;;;;;;2575027;54;20425;-58
2021/09/02 10:38:04;;;;;;;20.30;19.10;;;22.00;95.80;;;;;;2574245;54;20387;-56
2021/09/02 10:40:48;;;;;;;19.30;17.97;;;22.00;95.10;;;;;;2572887;54;20426;-58
2021/09/02 10:43:38;;;;;;;19.50;18.40;;;22.00;94.40;;;;;;2571074;54;21254;-59
2021/09/02 10:46:07;;;;;;;19.27;18.17;;;21.90;94.30;;;;;;2567059;54;20465;-57
2021/09/02 10:48:50;;;;;;;18.23;17.33;;;22.00;94.20;;;;;;2566891;54;21011;-57
2021/09/02 10:51:37;;;;;;;18.97;17.87;;;22.00;94.20;;;;;;2563958;54;20391;-56
2021/09/02 10:54:07;;;;;;;18.80;17.80;;;22.00;94.20;;;;;;2557694;54;20407;-58
2021/09/02 10:56:55;;;;;;;18.90;17.90;;;22.00;94.10;;;;;;2560096;47;20399;-57
2021/09/02 10:59:45;;;;;;;19.33;18.30;;;22.00;93.90;;;;;;2558584;54;21157;-54
2021/09/02 11:02:44;;;;;;;18.80;17.70;;;22.00;93.80;;;;;;2562145;54;20427;-59
2021/09/02 11:05:17;;;;;;;20.07;18.87;;;22.10;94.10;;;;;;2569910;39;20739;-58
2021/09/02 11:07:49;;;;;;;19.60;18.50;;;22.00;94.20;;;;;;2565557;54;20565;-58
2021/09/02 11:10:21;;;;;;;19.90;18.90;;;22.00;94.40;;;;;;2572881;54;20375;-59
2021/09/02 11:13:01;;;;;;;20.07;19.00;;;22.10;94.50;;;;;;2569793;50;20411;-58
2021/09/02 11:15:30;;;;;;;19.83;18.60;;;22.00;93.30;;;;;;2572204;54;20472;-59
2021/09/02 11:18:01;;;;;;;19.77;18.53;;;22.00;93.50;;;;;;2570635;47;20844;-59
2021/09/02 11:20:36;;;;;;;19.90;18.80;;;22.00;93.80;;;;;;2573786;39;20806;-59
2021/09/02 11:23:13;;;;;;;20.00;18.80;;;22.10;94.10;;;;;;2573401;54;20414;-58
2021/09/02 11:25:48;;;;;;;21.07;19.53;;;22.10;94.30;;;;;;2572897;54;20410;-59
2021/09/02 11:28:20;;;;;;;20.87;19.77;;;22.10;94.40;;;;;;2577296;54;21086;-59
2021/09/02 11:30:50;;;;;;;21.00;19.60;;;22.10;94.60;;;;;;2584808;54;20938;-58
2021/09/02 11:33:19;;;;;;;21.40;20.10;;;22.10;94.70;;;;;;2578703;51;20434;-57
2021/09/02 11:36:01;;;;;;;19.77;18.70;;;22.10;94.80;;;;;;2575802;54;20403;-57
2021/09/02 11:38:30;;;;;;;20.40;19.10;;;22.10;94.90;;;;;;2572894;51;20398;-58
2021/09/02 11:41:09;;;;;;;20.30;19.10;;;22.10;95.00;;;;;;2577254;54;20395;-58
2021/09/02 11:43:41;;;;;;;18.60;17.70;;;22.10;94.60;;;;;;2573193;54;20784;-57
2021/09/02 11:46:10;;;;;;;18.73;17.80;;;22.10;94.30;;;;;;2571686;39;20826;-57
2021/09/02 11:48:47;;;;;;;20.70;19.50;;;22.10;93.50;;;;;;2575861;54;20402;-57
2021/09/02 11:51:24;;;;;;;20.60;18.70;;;22.10;93.80;;;;;;2574623;54;20498;-57
2021/09/02 11:54:05;;;;;;;19.53;18.43;;;22.10;93.90;;;;;;2573409;54;20428;-58
2021/09/02 11:56:34;;;;;;;20.90;19.60;;;22.20;94.10;;;;;;2574509;54;20438;-58
2021/09/02 11:59:05;;;;;;;20.43;19.33;;;22.10;94.20;;;;;;2574160;54;20395;-59
2021/09/02 12:01:35;;;;;;;20.17;18.90;;;22.20;94.30;;;;;;2577844;39;20871;-57
2021/09/02 12:04:04;;;;;;;20.97;19.80;;;22.20;94.40;;;;;;2573307;54;20454;-56
2021/09/02 12:06:36;;;;;;;21.03;19.83;;;22.10;94.50;;;;;;2573778;54;20980;-58
2021/09/02 12:09:06;;;;;;;19.57;18.57;;;22.20;94.60;;;;;;2576282;54;20407;-59
2021/09/02 12:11:36;;;;;;;19.70;18.60;;;22.20;94.70;;;;;;2575398;54;20383;-57
2021/09/02 12:14:18;;;;;;;19.70;18.50;;;22.20;94.70;;;;;;2575968;54;20374;-58
2021/09/02 12:16:48;;;;;;;19.37;18.33;;;22.20;94.80;;;;;;2574745;47;20438;-58
2021/09/02 12:19:17;;;;;;;20.53;19.13;;;22.10;94.80;;;;;;2577712;54;20367;-58
2021/09/02 12:21:49;;;;;;;19.40;18.30;;;22.20;94.90;;;;;;2571203;54;20453;-57
2021/09/02 12:24:19;;;;;;;19.70;18.67;;;22.20;95.00;;;;;;2571544;54;20419;-58
2021/09/02 12:26:51;;;;;;;19.40;18.20;;;22.10;95.00;;;;;;2567766;54;20919;-54
2021/09/02 12:29:22;;;;;;;19.10;17.90;;;22.20;95.10;;;;;;2568519;47;20399;-58
2021/09/02 12:31:53;;;;;;;20.47;19.27;;;22.20;95.10;;;;;;2573638;54;20433;-58
2021/09/02 12:34:24;;;;;;;20.67;19.27;;;22.10;95.00;;;;;;2570141;39;20891;-58
2021/09/02 12:37:05;;;;;;;20.13;19.03;;;22.10;95.00;;;;;;2571723;47;20411;-58
2021/09/02 12:39:35;;;;;;;19.60;18.40;;;22.10;95.10;;;;;;2573655;39;20731;-57
2021/09/02 12:42:07;;;;;;;19.97;18.77;;;22.10;95.10;;;;;;2569742;47;21720;-58
2021/09/02 12:44:38;;;;;;;20.30;19.10;;;22.20;95.20;;;;;;2570806;54;20486;-57
2021/09/02 12:47:12;;;;;;;19.10;18.00;;;22.20;95.20;;;;;;2575112;54;20395;-58
2021/09/02 12:49:46;;;;;;;19.50;18.40;;;22.20;95.20;;;;;;2574789;47;20436;-57
2021/09/02 12:52:23;;;;;;;19.43;18.33;;;22.20;95.20;;;;;;2575334;54;21813;-57